Tiempo atmosférico en la estación meteorológica de Coruña Del Conde, Burgos (945 m.)



Fecha
DESCASC
Temp. máxima en grados centígrados (hora)
DESCASC
Temp. mínima en grados centígrados (hora)
DESCASC
Temp. media en grados centígrados
DESCASC
Racha de viento máxima en m/sg (hora)
DESCASC
Velocidad máxima media en intervalos de 10 minutos(hora)
DESCASC
Precipitaciones diarias en mm
DESCASC
Precipitaciones de 00:00 a 06:00 en mm
DESCASC
Precipitaciones de 06:00 a 12:00 en mm
DESCASC
Precipitaciones de 12:00 a 18:00 en mm
DESCASC
Precipitaciones de 18:00 a 24:00 en mm
DESCASC
16-06-2019 27.5 (17:20) 8.2 (05:00) 17.8 10 (09:40) 6.39 (09:50) 0 0 0 0 0
15-06-2019 21.8 (19:50) 7.7 (07:10) 14.7 7.22 (17:00) 3.89 (02:10) 0 0 0 0 0
14-06-2019 24.3 (17:50) 6.9 (06:10) 15.6 11.39 (19:50) 6.94 (19:20) 0 0 0 0 0
13-06-2019 24.8 (16:20) 9.7 (00:00) 17.2 13.33 (13:00) 7.78 (13:00) 0 0 0 0 0
12-06-2019 20.5 (18:30) 1.8 (00:00) 11.1 10.28 (15:40) 4.72 (17:00) 0 0 0 0 0
11-06-2019 15.4 (17:50) 6.7 (00:00) 11 11.67 (18:10) 7.5 (12:10) 2.4 2.2 0.2 0 0
10-06-2019 17.9 (16:30) 5.7 (00:00) 11.8 10.28 (13:40) 6.11 (13:40) 0 0 0 0 0
09-06-2019 23.1 (16:00) 10.4 (00:00) 16.8 9.44 (18:40) 6.11 (19:50) 0 0 0 0 0
08-06-2019 24.1 (16:20) 4 (00:00) 14.1 11.11 (16:20) 6.11 (10:40) 0 0 0 0 0
07-06-2019 16.6 (18:50) 6 (00:00) 11.3 13.61 (00:50) 8.06 (00:50) 4 3.8 0.2 0 0
06-06-2019 21.1 (16:10) 6 (00:00) 13.6 15.28 (16:30) 9.72 (18:00) 0 0 0 0 0
05-06-2019 17.4 (17:20) 8.2 (00:00) 12.8 11.11 (17:20) 6.39 (17:20) 0.8 0 0.6 0.2 0
04-06-2019 25 (16:30) 10.1 (00:00) 17.6 11.94 (17:00) 7.22 (17:20) 0 0 0 0 0
03-06-2019 29.4 (16:30) 12.3 (00:00) 20.8 10.56 (16:00) 6.11 (17:40) 0 0 0 0 0
02-06-2019 30.7 (17:10) 15.5 (00:00) 23.1 8.61 (17:20) 5 (15:30) 0 0 0 0 0
01-06-2019 30.7 (18:30) 14.9 (00:00) 22.8 8.06 (05:20) 5 (02:20) 0 0 0 0 0
31-05-2019 29.2 (19:50) 7.8 (00:00) 18.5 8.33 (15:30) 3.61 (22:30) 0 0 0 0 0
30-05-2019 27.5 (18:10) 5.2 (00:00) 16.3 8.33 (20:30) 5.28 (20:40) 0 0 0 0 0
29-05-2019 20.4 (17:40) 5.1 (00:00) 12.7 10.56 (16:10) 6.94 (21:00) 0 0 0 0 0
28-05-2019 18.1 (14:30) 4.1 (00:00) 11.1 13.89 (16:00) 7.5 (16:00) 0 0 0 0 0
27-05-2019 22 (14:40) 6.4 (00:00) 14.2 10.56 (16:30) 7.22 (16:30) 0 0 0 0 0
26-05-2019 21.7 (16:00) 3.9 (00:00) 12.8 10.83 (15:20) 5.83 (16:10) 0 0 0 0 0
25-05-2019 18.5 (16:40) 8.3 (00:00) 13.4 11.39 (13:20) 7.5 (10:20) 0 0 0 0 0
24-05-2019 16.6 (14:40) 9.6 (00:00) 13.1 14.17 (17:00) 8.89 (18:00) 0.8 0 0.8 0 0
23-05-2019 24.1 (18:50) 11.4 (00:00) 17.8 7.5 (19:00) 5 (19:20) 0 0 0 0 0
22-05-2019 23.1 (16:50) 5.3 (00:00) 14.2 8.06 (15:30) 4.44 (15:30) 0 0 0 0 0
21-05-2019 20.8 (17:30) 5.9 (05:50) 13.3 7.5 (20:40) 4.72 (18:00) 0 0 0 0 0

Gráficas

Temp. máximas Temp. mínimas Temp. medias Precipitaciones Rachas de viento máximas Velocidades máximas media en intervalos de 10 minutos

Datos horarios

Fecha y hora oficial Temperatura (ºC) Velocidad del viento (km/h) Dirección del viento Racha (km/h) Dirección de racha Precipitación (mm) Presión (hPa) Tendencia (hPa) Humedad (%)
2019-06-19 23:00:00 17.5 5 Noroeste 17 Noroeste 0 -- -- 53
2019-06-19 22:00:00 19.4 12 Noroeste 27 Noroeste 0 -- -- 47
2019-06-19 21:00:00 21.9 15 Noroeste 31 Oeste 0 -- -- 41
2019-06-19 20:00:00 22.7 19 Noroeste 31 Oeste 0 -- -- 38
2019-06-19 19:00:00 24.5 14 Oeste 30 Oeste 0 -- -- 35
2019-06-19 18:00:00 24.8 18 Oeste 33 Oeste 0 -- -- 35
2019-06-19 17:00:00 24.4 14 Sudoeste 31 Oeste 0 -- -- 35
2019-06-19 16:00:00 24.2 14 Oeste 29 Oeste 0 -- -- 36
2019-06-19 15:00:00 23 15 Oeste -- -- -- -- -- 40
2019-06-19 14:00:00 -- -- -- -- -- -- -- -- --
2019-06-19 13:00:00 -- -- -- -- -- -- -- -- --
2019-06-19 12:00:00 -- -- -- -- -- -- -- -- --
2019-06-19 11:00:00 -- -- -- -- -- -- -- -- --
2019-06-19 10:00:00 -- -- -- -- -- -- -- -- --
2019-06-19 09:00:00 -- -- -- -- -- -- -- -- --
2019-06-19 08:00:00 -- -- -- -- -- -- -- -- --
2019-06-19 07:00:00 -- -- -- -- -- -- -- -- --
2019-06-19 06:00:00 -- -- -- -- -- -- -- -- --
2019-06-19 05:00:00 -- -- -- -- -- -- -- -- --
2019-06-19 04:00:00 -- -- -- -- -- -- -- -- --
2019-06-19 03:00:00 -- -- -- -- -- -- -- -- --
2019-06-19 02:00:00 -- -- -- -- -- -- -- -- --
2019-06-19 01:00:00 -- -- -- -- -- -- -- -- --
2019-06-19 00:00:00 -- -- -- -- -- -- -- -- --
2019-06-18 23:00:00 -- -- -- -- -- -- -- -- --
2019-06-18 22:00:00 -- -- -- -- -- -- -- -- --
2019-06-18 21:00:00 -- -- -- -- -- -- -- -- --
2019-06-18 20:00:00 -- -- -- -- -- -- -- -- --
2019-06-18 19:00:00 27.1 27 Sudoeste 46 Sudoeste 0 -- -- 16
2019-06-18 18:00:00 27.7 25 Sudoeste 49 Oeste 0 -- -- 15
2019-06-18 17:00:00 28.5 30 Sudoeste 47 Sudoeste 0 -- -- 16
2019-06-18 16:00:00 28.4 28 Sur 50 Sur 0 -- -- 14
2019-06-18 15:00:00 27.9 24 Sur 49 Sudoeste 0 -- -- 15
2019-06-18 14:00:00 27.4 27 Sur 62 Sudoeste 0 -- -- 19
2019-06-18 13:00:00 27 17 Sudoeste 36 Sudoeste 0 -- -- 17
2019-06-18 12:00:00 26 24 Sur 40 Sudoeste 0 -- -- 19
2019-06-18 11:00:00 24.7 13 Sur 26 Sudoeste 0 -- -- 23
2019-06-18 10:00:00 22.8 7 Sur 13 Sudeste 0 -- -- 29
2019-06-18 09:00:00 20.3 8 Sudeste 16 Sudeste 0 -- -- 33
2019-06-18 08:00:00 16.6 4 Este 12 Sudeste 0 -- -- 40
2019-06-18 07:00:00 14.8 9 Sudeste 16 Sudeste 0 -- -- 41
2019-06-18 06:00:00 15.5 9 Sudeste 18 Sudeste 0 -- -- 40
2019-06-18 05:00:00 16.6 11 Sudeste 23 Sudeste 0 -- -- 38
2019-06-18 04:00:00 17.7 13 Este 19 Este 0 -- -- 35
2019-06-18 03:00:00 17.8 9 Sudeste 19 Sur 0 -- -- 36
2019-06-18 02:00:00 18.7 3 Noroeste 13 Norte 0 -- -- 33
2019-06-18 01:00:00 19.2 5 Noroeste 13 Norte 0 -- -- 32
2019-06-18 00:00:00 20.4 9 Noroeste 22 Noroeste 0 -- -- 29
2019-06-17 23:00:00 22.3 19 Noroeste 31 Oeste 0 -- -- 25
2019-06-17 22:00:00 23.6 9 Sur 15 Sur 0 -- -- 23
2019-06-17 21:00:00 25.5 11 Sur 23 Sur 0 -- -- 21
2019-06-17 20:00:00 27 14 Sur 26 Sur 0 -- -- 19
2019-06-17 19:00:00 27.5 15 Sur 33 Sur 0 -- -- 20
2019-06-17 18:00:00 27.8 14 Sudoeste 34 Sudoeste 0 -- -- 19
2019-06-17 17:00:00 29.2 18 Sur 36 Sur 0 -- -- 17
2019-06-17 16:00:00 28.9 11 Sudoeste 32 Sur 0 -- -- 18
2019-06-17 15:00:00 28.2 12 Sudoeste 32 Sudeste 0 -- -- 18
2019-06-17 14:00:00 26.9 10 Oeste 31 Sudoeste 0 -- -- 19
2019-06-17 13:00:00 26 8 Oeste 19 Sudoeste 0 -- -- 23
2019-06-17 12:00:00 24.7 6 Oeste 13 Sudoeste 0 -- -- 25
2019-06-17 11:00:00 23 6 Sudoeste 12 Oeste 0 -- -- 28
2019-06-17 10:00:00 21.3 3 Sudoeste 6 Sudoeste 0 -- -- 31
2019-06-17 09:00:00 17.9 4 Sudeste 7 Sudeste 0 -- -- 36
2019-06-17 08:00:00 12.4 2 Norte 4 Nordeste 0 -- -- 54
2019-06-17 07:00:00 9.5 3 Nordeste 8 Este 0 -- -- 56
2019-06-17 06:00:00 10.3 2 Nordeste 13 Este 0 -- -- 53
2019-06-17 05:00:00 11.1 2 Nordeste 8 Nordeste 0 -- -- 50
2019-06-17 04:00:00 11 3 Norte 12 Este 0 -- -- 51
2019-06-17 03:00:00 12.7 8 Este 12 Este 0 -- -- 44
2019-06-17 02:00:00 14.1 4 Norte 6 Norte 0 -- -- 42
2019-06-17 01:00:00 17.1 3 Sudoeste 14 Sudoeste 0 -- -- 34
2019-06-17 00:00:00 18.5 5 Oeste 14 Noroeste 0 -- -- 31
2019-06-16 23:00:00 19.8 8 Sudoeste 14 Sur 0 -- -- 29
2019-06-16 22:00:00 22.7 4 Noroeste 6 Noroeste 0 -- -- 23
2019-06-16 21:00:00 25.4 4 Noroeste 13 Oeste 0 -- -- 21
2019-06-16 20:00:00 26.5 5 Norte 18 Oeste 0 -- -- 20
2019-06-16 19:00:00 26.3 6 Sur 24 Sudoeste 0 -- -- 20
2019-06-16 18:00:00 26.6 13 Sur 28 Sudoeste 0 -- -- 19
2019-06-16 17:00:00 27.1 12 Sudoeste 23 Sudoeste 0 -- -- 21
2019-06-16 16:00:00 26.3 8 Este 21 Sudeste 0 -- -- 22
2019-06-16 15:00:00 25.7 6 Oeste 26 Sudoeste 0 -- -- 23
2019-06-16 14:00:00 24.5 6 Sur 22 Sur 0 -- -- 25
2019-06-16 13:00:00 23.4 9 Sur 33 Sur 0 -- -- 26
2019-06-16 12:00:00 21.9 8 Sudeste 27 Sudeste 0 -- -- 31
2019-06-16 11:00:00 19.4 21 Sudeste 31 Sudeste 0 -- -- 39
2019-06-16 10:00:00 17.2 20 Sudeste 36 Sudeste 0 -- -- 48
2019-06-16 09:00:00 15 17 Sudeste 30 Sudeste 0 -- -- 53
2019-06-16 08:00:00 12.2 11 Este 19 Este 0 -- -- 61
2019-06-16 07:00:00 10.7 10 Este 22 Este 0 -- -- 65
2019-06-16 06:00:00 9.1 9 Este 16 Este 0 -- -- 72
2019-06-16 05:00:00 8.2 8 Este 12 Este 0 -- -- 77
2019-06-16 04:00:00 9.1 4 Nordeste 15 Este 0 -- -- 73
2019-06-16 03:00:00 10.3 8 Sudeste 15 Este 0 -- -- 70
2019-06-16 02:00:00 11.5 10 Este 21 Este 0 -- -- 65
2019-06-16 01:00:00 11.8 9 Este 24 Este 0 -- -- 59
2019-06-16 00:00:00 14.3 4 Nordeste 5 Nordeste 0 -- -- 42
2019-06-15 23:00:00 15.8 3 Norte 5 Noroeste 0 -- -- 37
2019-06-15 22:00:00 17.9 4 Noroeste 11 Noroeste 0 -- -- 34
2019-06-15 21:00:00 20.4 5 Noroeste 17 Noroeste 0 -- -- 29
2019-06-15 20:00:00 21.7 7 Oeste 18 Oeste 0 -- -- 27
2019-06-15 19:00:00 21.2 7 Nordeste 26 Noroeste 0 -- -- 28
2019-06-15 18:00:00 21.4 8 Sudoeste 23 Oeste 0 -- -- 29
2019-06-15 17:00:00 21 13 Noroeste 26 Noroeste 0 -- -- 31
2019-06-15 16:00:00 19.9 12 Noroeste 26 Noroeste 0 -- -- 34
2019-06-15 15:00:00 19.1 9 Noroeste 23 Noroeste 0 -- -- 36
2019-06-15 14:00:00 17.7 9 Oeste 23 Oeste 0 -- -- 40
2019-06-15 13:00:00 16.9 7 Oeste 24 Oeste 0 -- -- 43
2019-06-15 12:00:00 15 9 Oeste 25 Oeste 0 -- -- 49
2019-06-15 11:00:00 13.7 10 Oeste 21 Oeste 0 -- -- 56
2019-06-15 10:00:00 12.5 9 Oeste 18 Oeste 0 -- -- 62
2019-06-15 09:00:00 10.5 9 Sudoeste 21 Oeste 0 -- -- 67
2019-06-15 08:00:00 9.2 7 Sudoeste 15 Sudoeste 0 -- -- 70
2019-06-15 07:00:00 7.8 7 Oeste 14 Oeste 0 -- -- 74
2019-06-15 06:00:00 8.9 8 Oeste 14 Sudoeste 0 -- -- 70
2019-06-15 05:00:00 9.9 8 Oeste 17 Sudoeste 0 -- -- 65
2019-06-15 04:00:00 11 9 Oeste 22 Sudoeste 0 -- -- 57
2019-06-15 03:00:00 11 6 Sudoeste 21 Oeste 0 -- -- 52
2019-06-15 02:00:00 11.8 12 Oeste 22 Oeste 0 -- -- 48
2019-06-15 01:00:00 13.8 12 Oeste 23 Oeste 0 -- -- 42
2019-06-15 00:00:00 14.6 10 Oeste 24 Oeste 0 -- -- 41
2019-06-14 23:00:00 15.6 11 Oeste 28 Oeste 0 -- -- 39
2019-06-14 22:00:00 17.1 21 Oeste 36 Oeste 0 -- -- 35
2019-06-14 21:00:00 19.3 14 Oeste 36 Noroeste 0 -- -- 27
2019-06-14 20:00:00 21.5 24 Oeste 41 Oeste 0 -- -- 24
2019-06-14 19:00:00 23.1 20 Oeste 35 Oeste 0 -- -- 24
2019-06-14 18:00:00 24.2 19 Oeste 33 Oeste 0 -- -- 21
2019-06-14 17:00:00 23.9 15 Oeste 28 Oeste 0 -- -- 21
2019-06-14 16:00:00 23.5 14 Oeste 35 Oeste 0 -- -- 24
2019-06-14 15:00:00 22.6 16 Oeste 35 Oeste 0 -- -- 26
2019-06-14 14:00:00 21.9 17 Oeste 33 Sudoeste 0 -- -- 30
2019-06-14 13:00:00 21.1 12 Sudoeste 31 Sudoeste 0 -- -- 30
2019-06-14 12:00:00 20.4 17 Oeste 28 Oeste 0 -- -- 32
2019-06-14 11:00:00 19.6 10 Sudoeste 20 Sudoeste 0 -- -- 34
2019-06-14 10:00:00 17.5 8 Sur 14 Sur 0 -- -- 44
2019-06-14 09:00:00 15.5 6 Sur 16 Sudeste 0 -- -- 57
2019-06-14 08:00:00 12.3 10 Este 17 Este 0 -- -- 68
2019-06-14 07:00:00 9.1 10 Este 18 Este 0 -- -- 79
2019-06-14 06:00:00 7.7 4 Nordeste 11 Este 0 -- -- 74
2019-06-14 05:00:00 8.7 5 Sudeste 6 Sudeste 0 -- -- 70
2019-06-14 04:00:00 10.1 3 Sur 8 Este 0 -- -- 73
2019-06-14 03:00:00 10.6 5 Nordeste 8 Este 0 -- -- 72
2019-06-14 02:00:00 12.3 0 Calma 11 Sudoeste 0 -- -- 63
2019-06-14 01:00:00 12.8 8 Sudoeste 10 Sudoeste 0 -- -- 42
2019-06-14 00:00:00 15.2 5 Norte 13 Noroeste 0 -- -- 36
2019-06-13 23:00:00 17.9 8 Oeste 22 Noroeste 0 -- -- 28
2019-06-13 22:00:00 20.2 8 Oeste 15 Sur 0 -- -- 26
2019-06-13 21:00:00 22.6 14 Sur 27 Sur 0 -- -- 23
2019-06-13 20:00:00 23.9 15 Sur 30 Sudoeste 0 -- -- 22
2019-06-13 19:00:00 23.7 14 Sur 31 Sur 0 -- -- 24
2019-06-13 18:00:00 23.6 19 Sur 34 Sur 0 -- -- 25
2019-06-13 17:00:00 24.7 23 Sur 42 Sur 0 -- -- 24
2019-06-13 16:00:00 24.1 19 Sudoeste 42 Sur 0 -- -- 25
2019-06-13 15:00:00 23.6 21 Sudoeste 38 Sur 0 -- -- 27
2019-06-13 14:00:00 22.2 20 Sudoeste 40 Sudoeste 0 -- -- 29
2019-06-13 13:00:00 22 28 Sur 48 Sur 0 -- -- 29
2019-06-13 12:00:00 21.1 20 Sur 39 Sur 0 -- -- 30
2019-06-13 11:00:00 19.2 18 Sudeste 33 Sudeste 0 -- -- 42
2019-06-13 10:00:00 17.2 15 Sudeste 30 Sudeste 0 -- -- 51
2019-06-13 09:00:00 14.1 13 Sudeste 26 Este 0 -- -- 62
2019-06-13 08:00:00 11.5 14 Este 24 Sudeste 0 -- -- 67
2019-06-13 07:00:00 9.8 12 Este 24 Este 0 -- -- 71
2019-06-13 06:00:00 9.7 8 Este 23 Este 0 -- -- 67
2019-06-13 05:00:00 10.3 16 Sudeste 29 Sudeste 0 -- -- 61
2019-06-13 04:00:00 10.9 18 Sudeste 32 Este 0 -- -- 54
2019-06-13 03:00:00 11.6 14 Este 29 Sudeste 0 -- -- 51
2019-06-13 02:00:00 12.3 18 Este 30 Este 0 -- -- 49
2019-06-13 01:00:00 12.1 12 Este 22 Este 0 -- -- 46
2019-06-13 00:00:00 12.7 10 Nordeste 16 Nordeste 0 -- -- 37
2019-06-12 23:00:00 14.5 7 Noroeste 12 Norte 0 -- -- 33
2019-06-12 22:00:00 16.7 5 Nordeste 10 Este 0 -- -- 32
2019-06-12 21:00:00 18.8 7 Este 10 Este 0 -- -- 29
2019-06-12 20:00:00 19.4 5 Oeste 14 Sudoeste 0 -- -- 26
2019-06-12 19:00:00 19.3 7 Noroeste 24 Sudoeste 0 -- -- 25
2019-06-12 18:00:00 19.7 12 Oeste 27 Oeste 0 -- -- 26
2019-06-12 17:00:00 19.2 17 Oeste 28 Oeste 0 -- -- 28
2019-06-12 16:00:00 18.3 13 Sudoeste 37 Sudoeste 0 -- -- 30
2019-06-12 15:00:00 17.2 10 Sudoeste 30 Sudoeste 0 -- -- 32
2019-06-12 14:00:00 15.8 12 Oeste 29 Sudoeste 0 -- -- 36
2019-06-12 13:00:00 14.8 10 Sudoeste 33 Sudoeste 0 -- -- 37
2019-06-12 12:00:00 12.9 10 Sudoeste 19 Sudoeste 0 -- -- 45
2019-06-12 11:00:00 11.4 8 Sudoeste 14 Sudoeste 0 -- -- 52
2019-06-12 10:00:00 9.6 4 Noroeste 12 Oeste 0 -- -- 56
2019-06-12 09:00:00 6.6 3 Sur 6 Sudeste 0 -- -- 80
2019-06-12 08:00:00 4.6 0 Calma 4 Nordeste 0 -- -- 89
2019-06-12 07:00:00 1.9 3 Nordeste 5 Norte 0 -- -- 90
2019-06-12 06:00:00 2 2 Norte 4 Noroeste 0 -- -- 88
2019-06-12 05:00:00 3.1 0 Calma 10 Este 0 -- -- 84
2019-06-12 04:00:00 3.6 6 Este 8 Este 0 -- -- 84
2019-06-12 03:00:00 3.9 4 Norte 6 Este 0 -- -- 80
2019-06-12 02:00:00 4.9 6 Este 10 Sudeste 0 -- -- 76
2019-06-12 01:00:00 6.3 2 Nordeste 8 Norte 0 -- -- 70
2019-06-12 00:00:00 6.8 6 Norte 12 Norte 0 -- -- 68
2019-06-11 23:00:00 8 6 Nordeste 16 Norte 0 -- -- 63
2019-06-11 22:00:00 10 10 Norte 18 Nordeste 0 -- -- 54
2019-06-11 21:00:00 12.5 14 Norte 25 Norte 0 -- -- 47
2019-06-11 20:00:00 13.5 19 Norte 31 Norte 0 -- -- 43
2019-06-11 19:00:00 14.5 21 Norte 42 Noroeste 0 -- -- 35
2019-06-11 18:00:00 14.8 22 Norte 36 Norte 0 -- -- 36
2019-06-11 17:00:00 14.4 21 Noroeste 36 Norte 0 -- -- 38
2019-06-11 16:00:00 14.9 20 Noroeste 33 Noroeste 0 -- -- 33
2019-06-11 15:00:00 14.7 19 Norte 36 Norte 0 -- -- 38
2019-06-11 14:00:00 13.4 23 Norte 38 Norte 0 -- -- 45
2019-06-11 13:00:00 12.1 24 Noroeste 39 Norte 0 -- -- 52
2019-06-11 12:00:00 10.8 26 Noroeste 37 Norte 0 -- -- 60
2019-06-11 11:00:00 10.3 20 Norte 31 Norte 0 -- -- 63
2019-06-11 10:00:00 8.9 16 Norte 26 Norte 0.2 -- -- 72
2019-06-11 09:00:00 7.8 10 Norte 16 Norte 0 -- -- 82
2019-06-11 08:00:00 7.4 6 Norte 10 Norte 0 -- -- 85
2019-06-11 07:00:00 7 6 Norte 16 Nordeste 0 -- -- 90
2019-06-11 06:00:00 6.9 12 Norte 17 Norte 1.6 -- -- 91
2019-06-11 05:00:00 7.9 12 Norte 18 Nordeste 0.6 -- -- 87
2019-06-11 04:00:00 10 9 Nordeste 14 Nordeste 0 -- -- 75
2019-06-11 03:00:00 11.6 7 Este 14 Este 0 -- -- 61
2019-06-11 02:00:00 12.1 4 Norte 6 Norte 0 -- -- 59
2019-06-11 01:00:00 12.4 3 Noroeste 5 Norte 0 -- -- 57
2019-06-11 00:00:00 12.7 2 Este 8 Este 0 -- -- 54
2019-06-10 23:00:00 13.1 6 Este 16 Nordeste 0 -- -- 52
2019-06-10 22:00:00 13.8 10 Nordeste 17 Nordeste 0 -- -- 47
2019-06-10 21:00:00 14.4 12 Norte 26 Norte 0 -- -- 44
2019-06-10 20:00:00 15.4 14 Norte 28 Noroeste 0 -- -- 41
2019-06-10 19:00:00 16.2 15 Noroeste 32 Noroeste 0 -- -- 41
2019-06-10 18:00:00 16.9 19 Noroeste 32 Noroeste 0 -- -- 39
2019-06-10 17:00:00 17.3 17 Noroeste 36 Noroeste 0 -- -- 39
2019-06-10 16:00:00 17.8 18 Noroeste 32 Oeste 0 -- -- 38
2019-06-10 15:00:00 16.4 17 Oeste 33 Noroeste 0 -- -- 41
2019-06-10 14:00:00 16.8 17 Oeste 37 Oeste 0 -- -- 40
2019-06-10 13:00:00 15.9 18 Oeste 32 Oeste 0 -- -- 45
2019-06-10 12:00:00 15.6 17 Noroeste 32 Noroeste 0 -- -- 47
2019-06-10 11:00:00 14.6 14 Oeste 25 Noroeste 0 -- -- 56
2019-06-10 10:00:00 11.7 14 Oeste 20 Oeste 0 -- -- 71
2019-06-10 09:00:00 9 2 Norte 14 Oeste 0 -- -- 83
2019-06-10 08:00:00 7.2 2 Sur 6 Sudoeste 0 -- -- 88
2019-06-10 07:00:00 5.7 2 Sur 5 Sudoeste 0 -- -- 89
2019-06-10 06:00:00 6.5 2 Sudoeste 9 Oeste 0 -- -- 89
2019-06-10 05:00:00 7 5 Sudoeste 13 Sudoeste 0 -- -- 89
2019-06-10 04:00:00 7.8 4 Sudoeste 12 Sudoeste 0 -- -- 84
2019-06-10 03:00:00 9 8 Oeste 12 Oeste 0 -- -- 81
2019-06-10 02:00:00 10.9 0 Calma 19 Norte 0 -- -- 71
2019-06-10 01:00:00 11.9 13 Norte 22 Norte 0 -- -- 69
2019-06-10 00:00:00 12.5 12 Oeste 19 Oeste 0 -- -- 70
2019-06-09 23:00:00 13.8 10 Noroeste 21 Norte 0 -- -- 64
2019-06-09 22:00:00 15.9 11 Nordeste 23 Nordeste 0 -- -- 58
2019-06-09 21:00:00 19.2 13 Noroeste 30 Oeste 0 -- -- 42
2019-06-09 20:00:00 20.8 17 Noroeste 33 Noroeste 0 -- -- 30
2019-06-09 19:00:00 22.4 13 Oeste 34 Noroeste 0 -- -- 28
2019-06-09 18:00:00 22.9 17 Oeste 29 Oeste 0 -- -- 28
2019-06-09 17:00:00 22.6 17 Oeste 32 Noroeste 0 -- -- 28
2019-06-09 16:00:00 23.1 12 Oeste 31 Oeste 0 -- -- 30
2019-06-09 15:00:00 21.9 14 Oeste 32 Oeste 0 -- -- 31
2019-06-09 14:00:00 21.2 15 Oeste 30 Noroeste 0 -- -- 34
2019-06-09 13:00:00 20.3 14 Oeste 31 Sudoeste 0 -- -- 33
2019-06-09 12:00:00 18.9 12 Sudoeste 29 Sudoeste 0 -- -- 42
2019-06-09 11:00:00 16.9 8 Oeste 17 Noroeste 0 -- -- 49
2019-06-09 10:00:00 15.2 5 Noroeste 12 Noroeste 0 -- -- 53
2019-06-09 09:00:00 13.5 6 Oeste 11 Oeste 0 -- -- 58
2019-06-09 08:00:00 11.5 4 Noroeste 8 Noroeste 0 -- -- 72
2019-06-09 07:00:00 10.4 3 Sur 11 Este 0 -- -- 73
2019-06-09 06:00:00 11.3 7 Sudeste 16 Este 0 -- -- 75
2019-06-09 05:00:00 11.4 9 Este 13 Este 0 -- -- 76
2019-06-09 04:00:00 12.5 5 Este 11 Sudeste 0 -- -- 71
2019-06-09 03:00:00 13 3 Sur 16 Sudeste 0 -- -- 67
2019-06-09 02:00:00 14.4 10 Sudeste 16 Sudeste 0 -- -- 63
2019-06-09 01:00:00 15.6 7 Sur 18 Sudeste 0 -- -- 53
2019-06-09 00:00:00 16.2 13 Este 21 Este 0 -- -- 55
2019-06-08 23:00:00 17.9 15 Este 23 Este 0 -- -- 51
2019-06-08 22:00:00 19.2 10 Este 19 Este 0 -- -- 46
2019-06-08 21:00:00 20.8 6 Noroeste 23 Sur 0 -- -- 40
2019-06-08 20:00:00 23.2 13 Sur 27 Sudoeste 0 -- -- 33
2019-06-08 19:00:00 23.3 15 Sur 22 Sudoeste 0 -- -- 32
2019-06-08 18:00:00 23.8 14 Sur 28 Sudoeste 0 -- -- 31
2019-06-08 17:00:00 23.7 14 Sur 40 Sur 0 -- -- 28
2019-06-08 16:00:00 23.9 12 Sudoeste 35 Sudeste 0 -- -- 29
2019-06-08 15:00:00 23 11 Sudeste 27 Sudeste 0 -- -- 29
2019-06-08 14:00:00 21.7 9 Sudeste 27 Sudeste 0 -- -- 33
2019-06-08 13:00:00 20 13 Sudeste 24 Sudeste 0 -- -- 33
2019-06-08 12:00:00 18.5 15 Sudeste 32 Sudeste 0 -- -- 35
2019-06-08 11:00:00 16.7 16 Sudeste 31 Sudeste 0 -- -- 42
2019-06-08 10:00:00 14 17 Este 28 Este 0 -- -- 48
2019-06-08 09:00:00 12.1 11 Este 20 Sudeste 0 -- -- 56
2019-06-08 08:00:00 7.6 2 Nordeste 6 Este 0 -- -- 74
2019-06-08 07:00:00 4.1 4 Este 14 Este 0 -- -- 76
2019-06-08 06:00:00 4.7 11 Este 14 Este 0 -- -- 73
2019-06-08 05:00:00 4.2 2 Nordeste 11 Este 0 -- -- 77
2019-06-08 04:00:00 5.2 2 Nordeste 11 Este 0 -- -- 71
2019-06-08 03:00:00 6 2 Este 10 Este 0 -- -- 68
2019-06-08 02:00:00 6.9 8 Sudeste 12 Sudeste 0 -- -- 62
2019-06-08 01:00:00 8.1 3 Norte 6 Nordeste 0 -- -- 57
2019-06-08 00:00:00 9.7 5 Norte 6 Norte 0 -- -- 51
2019-06-07 23:00:00 11 3 Noroeste 5 Oeste 0 -- -- 44
2019-06-07 22:00:00 12.6 3 Oeste 13 Oeste 0 -- -- 39
2019-06-07 21:00:00 15 10 Oeste 19 Oeste 0 -- -- 35
2019-06-07 20:00:00 16 14 Oeste 26 Oeste 0 -- -- 33
2019-06-07 19:00:00 16.5 12 Noroeste 23 Oeste 0 -- -- 33
2019-06-07 18:00:00 15.7 16 Oeste 28 Oeste 0 -- -- 34
2019-06-07 17:00:00 16.3 11 Noroeste 30 Oeste 0 -- -- 36
2019-06-07 16:00:00 15.2 19 Oeste 32 Oeste 0 -- -- 39
2019-06-07 15:00:00 13.6 12 Oeste 35 Oeste 0 -- -- 46
2019-06-07 14:00:00 13.2 16 Oeste 37 Oeste 0 -- -- 48
2019-06-07 13:00:00 12.2 18 Oeste 38 Noroeste 0 -- -- 54
2019-06-07 12:00:00 10.7 22 Oeste 40 Oeste 0 -- -- 61
2019-06-07 11:00:00 8.9 17 Oeste 40 Sudoeste 0.2 -- -- 70
2019-06-07 10:00:00 8.2 18 Oeste 31 Oeste 0 -- -- 79
2019-06-07 09:00:00 7.4 17 Oeste 32 Oeste 0 -- -- 84
2019-06-07 08:00:00 6.3 16 Oeste 33 Sudoeste 0 -- -- 87
2019-06-07 07:00:00 6.1 15 Sudoeste 32 Oeste 0 -- -- 89
2019-06-07 06:00:00 6.6 21 Oeste 40 Sudoeste 0 -- -- 85
2019-06-07 05:00:00 6.7 16 Oeste 30 Sudoeste 0 -- -- 89
2019-06-07 04:00:00 6.7 12 Sudoeste 23 Sudoeste 1.2 -- -- 91
2019-06-07 03:00:00 6.7 16 Oeste 42 Oeste 1.2 -- -- 89
2019-06-07 02:00:00 8.9 18 Oeste 46 Oeste 0.8 -- -- 89
2019-06-07 01:00:00 10.4 24 Oeste 49 Oeste 0.6 -- -- 84
2019-06-07 00:00:00 16.3 17 Sudoeste 28 Sudoeste 0 -- -- 38
2019-06-06 23:00:00 16.1 10 Sur 40 Sur 0 -- -- 38
2019-06-06 22:00:00 17.4 22 Sur 38 Sur 0 -- -- 34
2019-06-06 21:00:00 18.6 27 Sur 45 Sur 0 -- -- 30
2019-06-06 20:00:00 20.3 30 Sur 46 Sur 0 -- -- 28
2019-06-06 19:00:00 19.9 30 Sur 49 Sur 0 -- -- 27
2019-06-06 18:00:00 20.2 35 Sur 50 Sur 0 -- -- 25
2019-06-06 17:00:00 20.9 31 Sur 55 Sur 0 -- -- 25
2019-06-06 16:00:00 20.9 30 Sur 54 Sur 0 -- -- 25
2019-06-06 15:00:00 19.7 22 Sur 40 Sudoeste 0 -- -- 26
2019-06-06 14:00:00 18.5 21 Sur 38 Sur 0 -- -- 30
2019-06-06 13:00:00 17.6 10 Sur 32 Sur 0 -- -- 37
2019-06-06 12:00:00 15.8 14 Sudeste 28 Sudeste 0 -- -- 43
2019-06-06 11:00:00 14 10 Sudeste 24 Sudeste 0 -- -- 49
2019-06-06 10:00:00 12.3 7 Sudeste 14 Sudeste 0 -- -- 53
2019-06-06 09:00:00 10.6 9 Sudeste 14 Este 0 -- -- 61
2019-06-06 08:00:00 8.2 7 Este 12 Este 0 -- -- 76
2019-06-06 07:00:00 6.1 7 Este 9 Este 0 -- -- 84
2019-06-06 06:00:00 6.4 3 Este 8 Este 0 -- -- 82
2019-06-06 05:00:00 6.7 2 Norte 7 Sudoeste 0 -- -- 78
2019-06-06 04:00:00 7.7 4 Sudoeste 10 Sudoeste 0 -- -- 74
2019-06-06 03:00:00 7.7 5 Sur 8 Sur 0 -- -- 68
2019-06-06 02:00:00 8.5 4 Sur 8 Sudoeste 0 -- -- 64
2019-06-06 01:00:00 9.1 4 Sudoeste 10 Sudoeste 0 -- -- 60
2019-06-06 00:00:00 10.5 7 Sudoeste 12 Sudoeste 0 -- -- 52
2019-06-05 23:00:00 11.5 6 Sudoeste 16 Oeste 0 -- -- 49
2019-06-05 22:00:00 12.6 10 Oeste 26 Oeste 0 -- -- 45
2019-06-05 21:00:00 14.3 16 Oeste 29 Oeste 0 -- -- 37
2019-06-05 20:00:00 15.1 12 Sudoeste 29 Oeste 0 -- -- 39
2019-06-05 19:00:00 15.3 15 Sudoeste 32 Oeste 0 -- -- 38
2019-06-05 18:00:00 16.2 21 Oeste 40 Noroeste 0 -- -- 36
2019-06-05 17:00:00 16.6 22 Oeste 38 Oeste 0 -- -- 37
2019-06-05 16:00:00 15.4 21 Oeste 35 Oeste 0 -- -- 43
2019-06-05 15:00:00 13.5 8 Sudoeste 27 Oeste 0.2 -- -- 55
2019-06-05 14:00:00 13.1 14 Oeste 31 Oeste 0 -- -- 55
2019-06-05 13:00:00 11.5 16 Oeste 27 Oeste 0 -- -- 67
2019-06-05 12:00:00 8.8 20 Oeste 39 Sudoeste 0 -- -- 78
2019-06-05 11:00:00 9.4 14 Oeste 27 Noroeste 0.4 -- -- 82
2019-06-05 10:00:00 8.8 18 Noroeste 28 Noroeste 0.2 -- -- 73
2019-06-05 09:00:00 9.4 13 Noroeste 27 Noroeste 0 -- -- 78
2019-06-05 08:00:00 8.6 14 Oeste 27 Oeste 0 -- -- 85
2019-06-05 07:00:00 8.9 15 Oeste 23 Oeste 0 -- -- 84
2019-06-05 06:00:00 9.4 13 Oeste 24 Oeste 0 -- -- 85
2019-06-05 05:00:00 11.2 12 Oeste 19 Sudoeste 0 -- -- 82
2019-06-05 04:00:00 12.5 7 Oeste 16 Oeste 0 -- -- 80
2019-06-05 03:00:00 13.5 6 Oeste 10 Oeste 0 -- -- 74
2019-06-05 02:00:00 13.9 4 Oeste 22 Noroeste 0 -- -- 63
2019-06-05 01:00:00 15 13 Oeste 23 Oeste 0 -- -- 58
2019-06-05 00:00:00 15.7 6 Oeste 24 Oeste 0 -- -- 58
2019-06-04 23:00:00 16.4 17 Oeste 28 Noroeste 0 -- -- 55
2019-06-04 22:00:00 18.1 13 Oeste 27 Noroeste 0 -- -- 49
2019-06-04 21:00:00 19.5 17 Noroeste 32 Noroeste 0 -- -- 45
2019-06-04 20:00:00 20.7 17 Noroeste 31 Oeste 0 -- -- 40
2019-06-04 19:00:00 22.3 17 Noroeste 30 Oeste 0 -- -- 37
2019-06-04 18:00:00 22.3 20 Noroeste 39 Noroeste 0 -- -- 35
2019-06-04 17:00:00 24.9 22 Oeste 43 Oeste 0 -- -- 32
2019-06-04 16:00:00 24.7 19 Oeste 41 Oeste 0 -- -- 33
2019-06-04 15:00:00 23.7 23 Oeste 42 Oeste 0 -- -- 34
2019-06-04 14:00:00 22.9 17 Oeste 33 Oeste 0 -- -- 38
2019-06-04 13:00:00 20.6 14 Oeste 28 Sudoeste 0 -- -- 53
2019-06-04 12:00:00 19.8 11 Oeste 25 Oeste 0 -- -- 57
2019-06-04 11:00:00 18.4 13 Oeste 23 Oeste 0 -- -- 63
2019-06-04 10:00:00 17.3 10 Oeste 18 Sudoeste 0 -- -- 64
2019-06-04 09:00:00 16 9 Sudoeste 16 Sudoeste 0 -- -- 67
2019-06-04 08:00:00 13.4 5 Oeste 8 Oeste 0 -- -- 67
2019-06-04 07:00:00 10.4 4 Noroeste 6 Noroeste 0 -- -- 61
2019-06-04 06:00:00 13.3 2 Sur 10 Sudeste 0 -- -- 58
2019-06-04 05:00:00 13.1 6 Noroeste 9 Oeste 0 -- -- 50
2019-06-04 04:00:00 16.2 8 Oeste 15 Sudoeste 0 -- -- 41
2019-06-04 03:00:00 15.4 3 Sudoeste 6 Sudeste 0 -- -- 34
2019-06-04 02:00:00 16.9 5 Sudeste 8 Sudeste 0 -- -- 29
2019-06-04 01:00:00 18.5 7 Sudeste 8 Sudeste 0 -- -- 27
2019-06-04 00:00:00 20.1 5 Sudoeste 14 Sudoeste 0 -- -- 25
2019-06-03 23:00:00 21.5 7 Sudoeste 12 Sudoeste 0 -- -- 23
2019-06-03 22:00:00 22.9 3 Sudoeste 22 Sudoeste 0 -- -- 20
2019-06-03 21:00:00 26.1 10 Sudoeste 23 Oeste 0 -- -- 18
2019-06-03 20:00:00 27.6 14 Oeste 30 Oeste 0 -- -- 17
2019-06-03 19:00:00 29.1 17 Oeste 35 Oeste 0 -- -- 16
2019-06-03 18:00:00 28.5 17 Oeste 36 Oeste 0 -- -- 15
2019-06-03 17:00:00 28.4 19 Oeste 35 Oeste 0 -- -- 16
2019-06-03 16:00:00 28.8 21 Oeste 38 Oeste 0 -- -- 18
2019-06-03 15:00:00 27.6 17 Sudoeste 35 Sudoeste 0 -- -- 19
2019-06-03 14:00:00 26.5 13 Sudoeste 23 Sur 0 -- -- 23
2019-06-03 13:00:00 25 7 Oeste 20 Sudoeste 0 -- -- 25
2019-06-03 12:00:00 23.4 7 Sudoeste 14 Sudoeste 0 -- -- 32
2019-06-03 11:00:00 21.3 6 Oeste 13 Oeste 0 -- -- 34
2019-06-03 10:00:00 19.2 4 Noroeste 13 Oeste 0 -- -- 41
2019-06-03 09:00:00 15.7 3 Norte 6 Norte 0 -- -- 55
2019-06-03 08:00:00 12.7 5 Norte 8 Noroeste 0 -- -- 62
2019-06-03 07:00:00 12.8 5 Sudeste 7 Sudeste 0 -- -- 56
2019-06-03 06:00:00 12.3 3 Nordeste 5 Nordeste 0 -- -- 55
2019-06-03 05:00:00 13.3 3 Este 5 Este 0 -- -- 51
2019-06-03 04:00:00 14 3 Norte 4 Este 0 -- -- 51
2019-06-03 03:00:00 15.5 2 Norte 4 Sudoeste 0 -- -- 45
2019-06-03 02:00:00 16.6 4 Nordeste 9 Nordeste 0 -- -- 41
2019-06-03 01:00:00 19.2 2 Nordeste 3 Este 0 -- -- 33
2019-06-03 00:00:00 20.9 2 Sudeste 9 Sudeste 0 -- -- 32
2019-06-02 23:00:00 22.2 0 Calma 12 Noroeste 0 -- -- 30
2019-06-02 22:00:00 23.2 6 Noroeste 16 Noroeste 0 -- -- 29
2019-06-02 21:00:00 25.9 13 Noroeste 27 Noroeste 0 -- -- 25
2019-06-02 20:00:00 27.4 13 Noroeste 24 Noroeste 0 -- -- 23
2019-06-02 19:00:00 29.1 11 Noroeste 31 Oeste 0 -- -- 22
2019-06-02 18:00:00 29.8 8 Oeste 31 Noroeste 0 -- -- 22
2019-06-02 17:00:00 30.2 13 Oeste 27 Sudoeste 0 -- -- 21
2019-06-02 16:00:00 30.4 13 Sudoeste 29 Oeste 0 -- -- 23
2019-06-02 15:00:00 29.3 7 Oeste 22 Noroeste 0 -- -- 26
2019-06-02 14:00:00 28.3 10 Sudoeste 22 Noroeste 0 -- -- 29
2019-06-02 13:00:00 27.2 6 Oeste 17 Oeste 0 -- -- 31
2019-06-02 12:00:00 25 5 Sudoeste 15 Sudoeste 0 -- -- 35
2019-06-02 11:00:00 23 7 Oeste 14 Oeste 0 -- -- 37
2019-06-02 10:00:00 21.4 6 Sudoeste 19 Oeste 0 -- -- 39
2019-06-02 09:00:00 19.3 10 Sudeste 18 Sudeste 0 -- -- 43
2019-06-02 08:00:00 16.7 13 Sudeste 24 Este 0 -- -- 49
2019-06-02 07:00:00 15.6 12 Este 21 Este 0 -- -- 49
2019-06-02 06:00:00 16.2 9 Sudeste 21 Este 0 -- -- 47
2019-06-02 05:00:00 17.5 12 Este 27 Este 0 -- -- 43
2019-06-02 04:00:00 18.8 11 Este 25 Este 0 -- -- 40
2019-06-02 03:00:00 19.9 14 Este 30 Este 0 -- -- 37
2019-06-02 02:00:00 20.7 16 Este 29 Este 0 -- -- 36
2019-06-02 01:00:00 20.8 15 Este 26 Este 0 -- -- 38
2019-06-02 00:00:00 21.4 14 Este 24 Este 0 -- -- 41
2019-06-01 23:00:00 22.8 11 Este 22 Este 0 -- -- 40
2019-06-01 22:00:00 24.4 9 Nordeste 14 Nordeste 0 -- -- 27
2019-06-01 21:00:00 29.3 4 Noroeste 15 Oeste 0 -- -- 21
2019-06-01 20:00:00 29.8 10 Noroeste 18 Oeste 0 -- -- 18
2019-06-01 19:00:00 30.5 6 Sudoeste 22 Sudoeste 0 -- -- 18
2019-06-01 18:00:00 30.5 7 Noroeste 21 Oeste 0 -- -- 19
2019-06-01 17:00:00 30.4 10 Oeste 19 Oeste 0 -- -- 20
2019-06-01 16:00:00 29.9 6 Sudoeste 19 Oeste 0 -- -- 20
2019-06-01 15:00:00 29.1 9 Norte 17 Norte 0 -- -- 22
2019-06-01 14:00:00 28.6 7 Sudoeste 20 Oeste 0 -- -- 18
2019-06-01 13:00:00 27.2 4 Sudeste 10 Sur 0 -- -- 26
2019-06-01 12:00:00 25.3 4 Oeste 14 Sur 0 -- -- 30
2019-06-01 11:00:00 23.7 6 Sudeste 17 Sudeste 0 -- -- 35
2019-06-01 10:00:00 21 10 Sudeste 23 Este 0 -- -- 43
2019-06-01 09:00:00 18.2 14 Sudeste 24 Sudeste 0 -- -- 46
2019-06-01 08:00:00 16.2 11 Sudeste 20 Este 0 -- -- 47
2019-06-01 07:00:00 15.3 13 Este 22 Este 0 -- -- 46
2019-06-01 06:00:00 16 14 Este 29 Este 0 -- -- 42
2019-06-01 05:00:00 16 14 Este 22 Este 0 -- -- 42
2019-06-01 04:00:00 16.2 12 Este 21 Sudeste 0 -- -- 44
2019-06-01 03:00:00 16.5 14 Este 27 Este 0 -- -- 44
2019-06-01 02:00:00 17.4 15 Sudeste 26 Este 0 -- -- 41
2019-06-01 01:00:00 18 14 Este 25 Sudeste 0 -- -- 39
2019-06-01 00:00:00 19.5 11 Este 19 Sudeste 0 -- -- 38
2019-05-31 23:00:00 20.6 9 Este 19 Nordeste 0 -- -- 39
2019-05-31 22:00:00 22.1 8 Norte 13 Noroeste 0 -- -- 35
2019-05-31 21:00:00 27.4 7 Oeste 12 Oeste 0 -- -- 22
2019-05-31 20:00:00 29 6 Sudoeste 11 Sudoeste 0 -- -- 19
2019-05-31 19:00:00 28.9 8 Sur 16 Sur 0 -- -- 18
2019-05-31 18:00:00 28.8 8 Sudoeste 22 Sur 0 -- -- 17
2019-05-31 17:00:00 28.5 8 Oeste 17 Sudoeste 0 -- -- 19
2019-05-31 16:00:00 27.9 10 Norte 30 Noroeste 0 -- -- 20
2019-05-31 15:00:00 27.3 6 Sudeste 17 Sudeste 0 -- -- 22
2019-05-31 14:00:00 26.2 10 Sudoeste 20 Sudoeste 0 -- -- 21
2019-05-31 13:00:00 25.2 12 Sur 20 Sur 0 -- -- 25
2019-05-31 12:00:00 24 8 Este 19 Sur 0 -- -- 29
2019-05-31 11:00:00 22.5 8 Este 18 Sudeste 0 -- -- 39
2019-05-31 10:00:00 20.4 10 Sudeste 17 Sudeste 0 -- -- 44
2019-05-31 09:00:00 17.1 6 Sudeste 10 Sudeste 0 -- -- 53
2019-05-31 08:00:00 11.1 4 Norte 5 Noroeste 0 -- -- 71
2019-05-31 07:00:00 7.8 4 Norte 7 Nordeste 0 -- -- 77
2019-05-31 06:00:00 8.8 5 Nordeste 8 Nordeste 0 -- -- 73
2019-05-31 05:00:00 9.6 3 Norte 9 Nordeste 0 -- -- 70
2019-05-31 04:00:00 10.3 4 Norte 6 Norte 0 -- -- 66
2019-05-31 03:00:00 11.9 3 Nordeste 9 Nordeste 0 -- -- 59
2019-05-31 02:00:00 12.5 5 Nordeste 9 Este 0 -- -- 58
2019-05-31 01:00:00 14.9 7 Sudeste 12 Sudeste 0 -- -- 48
2019-05-31 00:00:00 16.9 8 Sudeste 17 Nordeste 0 -- -- 46
2019-05-30 23:00:00 18.3 12 Nordeste 18 Nordeste 0 -- -- 40
2019-05-30 22:00:00 19.3 10 Nordeste 18 Norte 0 -- -- 33
2019-05-30 21:00:00 22.8 15 Norte 30 Norte 0 -- -- 27
2019-05-30 20:00:00 25.4 17 Nordeste 27 Norte 0 -- -- 23
2019-05-30 19:00:00 26.9 9 Norte 21 Norte 0 -- -- 21
2019-05-30 18:00:00 27.4 5 Norte 23 Norte 0 -- -- 19
2019-05-30 17:00:00 27.2 12 Noroeste 27 Oeste 0 -- -- 19
2019-05-30 16:00:00 26.1 10 Este 26 Este 0 -- -- 21
2019-05-30 15:00:00 25.7 7 Este 16 Este 0 -- -- 26
2019-05-30 14:00:00 24.1 9 Este 20 Este 0 -- -- 30
2019-05-30 13:00:00 22.8 7 Nordeste 16 Oeste 0 -- -- 35
2019-05-30 12:00:00 20.5 4 Noroeste 10 Norte 0 -- -- 39
2019-05-30 11:00:00 18 4 Norte 11 Noroeste 0 -- -- 47
2019-05-30 10:00:00 15.3 4 Sur 9 Sur 0 -- -- 55
2019-05-30 09:00:00 12.3 4 Sur 7 Sudeste 0 -- -- 65
2019-05-30 08:00:00 8.7 0 Calma 6 Norte 0 -- -- 75
2019-05-30 07:00:00 5.5 3 Nordeste 8 Nordeste 0 -- -- 83
2019-05-30 06:00:00 6.4 4 Nordeste 5 Nordeste 0 -- -- 79
2019-05-30 05:00:00 6.7 2 Sudeste 5 Sur 0 -- -- 77
2019-05-30 04:00:00 8.3 3 Norte 7 Nordeste 0 -- -- 71
2019-05-30 03:00:00 9.2 0 Calma 8 Nordeste 0 -- -- 68
2019-05-30 02:00:00 9.6 5 Nordeste 10 Sur 0 -- -- 65
2019-05-30 01:00:00 10.8 4 Este 9 Este 0 -- -- 63
2019-05-30 00:00:00 11.3 7 Este 12 Nordeste 0 -- -- 60
2019-05-29 23:00:00 12.8 9 Norte 24 Norte 0 -- -- 56
2019-05-29 22:00:00 14.5 12 Norte 36 Norte 0 -- -- 49
2019-05-29 21:00:00 16.7 25 Norte 36 Norte 0 -- -- 39
2019-05-29 20:00:00 18.2 21 Norte 32 Nordeste 0 -- -- 39
2019-05-29 19:00:00 19.3 19 Norte 34 Nordeste 0 -- -- 37
2019-05-29 18:00:00 20.1 19 Nordeste 33 Norte 0 -- -- 37
2019-05-29 17:00:00 20.3 21 Norte 38 Norte 0 -- -- 39
2019-05-29 16:00:00 19.4 20 Norte 36 Noroeste 0 -- -- 42
2019-05-29 15:00:00 19 19 Norte 35 Norte 0 -- -- 42
2019-05-29 14:00:00 18.1 10 Norte 29 Noroeste 0 -- -- 48
2019-05-29 13:00:00 16.8 18 Norte 32 Norte 0 -- -- 48
2019-05-29 12:00:00 16.2 14 Norte 31 Norte 0 -- -- 50
2019-05-29 11:00:00 14.1 21 Norte 32 Norte 0 -- -- 54
2019-05-29 10:00:00 12.3 14 Norte 23 Noroeste 0 -- -- 60
2019-05-29 09:00:00 9.7 9 Oeste 15 Noroeste 0 -- -- 68
2019-05-29 08:00:00 7.1 4 Sudoeste 8 Sur 0 -- -- 72
2019-05-29 07:00:00 5.1 4 Noroeste 8 Noroeste 0 -- -- 76
2019-05-29 06:00:00 5.9 6 Noroeste 18 Norte 0 -- -- 72
2019-05-29 05:00:00 6.8 11 Norte 25 Norte 0 -- -- 69
2019-05-29 04:00:00 7.5 16 Norte 29 Norte 0 -- -- 65
2019-05-29 03:00:00 7.4 18 Norte 25 Noroeste 0 -- -- 66
2019-05-29 02:00:00 7.3 9 Norte 18 Noroeste 0 -- -- 67
2019-05-29 01:00:00 7.7 9 Norte 25 Norte 0 -- -- 67
2019-05-29 00:00:00 8.8 10 Norte 18 Nordeste 0 -- -- 63
2019-05-28 23:00:00 9.7 10 Norte 26 Norte 0 -- -- 60
2019-05-28 22:00:00 10.7 18 Norte 33 Norte 0 -- -- 56
2019-05-28 21:00:00 12.8 19 Norte 38 Norte 0 -- -- 52
2019-05-28 20:00:00 14.6 24 Norte 39 Norte 0 -- -- 46
2019-05-28 19:00:00 16 17 Norte 41 Norte 0 -- -- 43
2019-05-28 18:00:00 16.6 23 Norte 40 Norte 0 -- -- 39
2019-05-28 17:00:00 16.9 26 Norte 42 Noroeste 0 -- -- 39
2019-05-28 16:00:00 17.4 27 Noroeste 50 Noroeste 0 -- -- 39
2019-05-28 15:00:00 17.6 22 Noroeste 36 Noroeste 0 -- -- 40
2019-05-28 14:00:00 17.7 15 Norte 30 Noroeste 0 -- -- 40
2019-05-28 13:00:00 16.3 12 Norte 31 Norte 0 -- -- 38
2019-05-28 12:00:00 14.8 20 Noroeste 35 Noroeste 0 -- -- 41
2019-05-28 11:00:00 12.9 16 Norte 29 Norte 0 -- -- 47
2019-05-28 10:00:00 11.9 17 Norte 23 Norte 0 -- -- 52
2019-05-28 09:00:00 9.9 2 Sudeste 7 Noroeste 0 -- -- 62
2019-05-28 08:00:00 6.3 3 Norte 6 Norte 0 -- -- 79
2019-05-28 07:00:00 4.1 3 Norte 6 Nordeste 0 -- -- 86
2019-05-28 06:00:00 4.9 0 Calma 3 Sur 0 -- -- 84
2019-05-28 05:00:00 5.8 4 Sur 5 Sur 0 -- -- 80
2019-05-28 04:00:00 6.9 3 Noroeste 8 Noroeste 0 -- -- 76
2019-05-28 03:00:00 7.8 3 Norte 8 Norte 0 -- -- 76
2019-05-28 02:00:00 9.1 4 Norte 8 Norte 0 -- -- 75
2019-05-28 01:00:00 10.3 0 Calma 14 Norte 0 -- -- 73
2019-05-28 00:00:00 11.5 9 Norte 18 Norte 0 -- -- 72
2019-05-27 23:00:00 12.9 8 Norte 28 Nordeste 0 -- -- 68
2019-05-27 22:00:00 14.6 18 Norte 29 Norte 0 -- -- 62
2019-05-27 21:00:00 17.2 12 Nordeste 29 Norte 0 -- -- 51
2019-05-27 20:00:00 19.4 17 Norte 34 Norte 0 -- -- 44
2019-05-27 19:00:00 20.3 20 Noroeste 33 Noroeste 0 -- -- 38
2019-05-27 18:00:00 20.8 21 Norte 32 Noroeste 0 -- -- 40
2019-05-27 17:00:00 21.6 19 Norte 38 Norte 0 -- -- 40
2019-05-27 16:00:00 21.4 25 Noroeste 38 Norte 0 -- -- 43
2019-05-27 15:00:00 21.7 21 Noroeste 35 Noroeste 0 -- -- 43
2019-05-27 14:00:00 21.5 19 Noroeste 30 Noroeste 0 -- -- 43
2019-05-27 13:00:00 20.9 14 Norte 26 Noroeste 0 -- -- 44
2019-05-27 12:00:00 19.7 13 Noroeste 25 Noroeste 0 -- -- 46
2019-05-27 11:00:00 17.6 8 Oeste 19 Oeste 0 -- -- 52
2019-05-27 10:00:00 13.9 4 Oeste 12 Oeste 0 -- -- 65
2019-05-27 09:00:00 10.3 4 Oeste 11 Sudoeste 0 -- -- 78
2019-05-27 08:00:00 7.7 7 Sudoeste 13 Sudoeste 0 -- -- 87
2019-05-27 07:00:00 6.4 4 Sur 7 Sur 0 -- -- 86
2019-05-27 06:00:00 7.5 3 Noroeste 9 Sudoeste 0 -- -- 84
2019-05-27 05:00:00 8.6 7 Sudoeste 10 Sudoeste 0 -- -- 81
2019-05-27 04:00:00 8.7 0 Calma 6 Sudoeste 0 -- -- 79
2019-05-27 03:00:00 9.9 4 Sur 14 Oeste 0 -- -- 74
2019-05-27 02:00:00 10.7 9 Noroeste 11 Noroeste 0 -- -- 70
2019-05-27 01:00:00 11.7 4 Noroeste 13 Norte 0 -- -- 64
2019-05-27 00:00:00 13.1 8 Norte 14 Norte 0 -- -- 61
2019-05-26 23:00:00 13.7 8 Nordeste 13 Nordeste 0 -- -- 60
2019-05-26 22:00:00 14.7 7 Nordeste 14 Norte 0 -- -- 58
2019-05-26 21:00:00 17.9 8 Nordeste 22 Nordeste 0 -- -- 50
2019-05-26 20:00:00 19.8 13 Norte 25 Norte 0 -- -- 46
2019-05-26 19:00:00 20.8 17 Noroeste 28 Norte 0 -- -- 43
2019-05-26 18:00:00 21.2 16 Nordeste 30 Nordeste 0 -- -- 40
2019-05-26 17:00:00 21.3 12 Nordeste 29 Norte 0 -- -- 45
2019-05-26 16:00:00 21.7 19 Nordeste 39 Norte 0 -- -- 42
2019-05-26 15:00:00 21.1 11 Noroeste 30 Noroeste 0 -- -- 43
2019-05-26 14:00:00 19.4 8 Nordeste 22 Noroeste 0 -- -- 40
2019-05-26 13:00:00 17.8 10 Norte 27 Noroeste 0 -- -- 49
2019-05-26 12:00:00 16.1 17 Noroeste 31 Noroeste 0 -- -- 51
2019-05-26 11:00:00 14.2 17 Noroeste 28 Norte 0 -- -- 55
2019-05-26 10:00:00 13 4 Sudeste 12 Norte 0 -- -- 59
2019-05-26 09:00:00 9.3 4 Oeste 10 Oeste 0 -- -- 73
2019-05-26 08:00:00 6.3 5 Sudoeste 13 Sudoeste 0 -- -- 81
2019-05-26 07:00:00 3.9 2 Sur 6 Sudoeste 0 -- -- 84
2019-05-26 06:00:00 4.5 4 Sudoeste 12 Norte 0 -- -- 83
2019-05-26 05:00:00 5.8 7 Norte 8 Norte 0 -- -- 76
2019-05-26 04:00:00 6.5 5 Norte 10 Norte 0 -- -- 74
2019-05-26 03:00:00 7.2 6 Norte 10 Norte 0 -- -- 72
2019-05-26 02:00:00 7.9 2 Sudoeste 15 Norte 0 -- -- 70
2019-05-26 01:00:00 8.4 11 Norte 25 Norte 0 -- -- 69
2019-05-26 00:00:00 8.9 9 Nordeste 15 Nordeste 0 -- -- 70
2019-05-25 23:00:00 9.9 4 Norte 20 Norte 0 -- -- 67
2019-05-25 22:00:00 11.1 15 Norte 26 Norte 0 -- -- 64
2019-05-25 21:00:00 13.4 14 Norte 29 Norte 0 -- -- 56
2019-05-25 20:00:00 15.1 17 Norte 32 Norte 0 -- -- 53
2019-05-25 19:00:00 16.4 21 Norte 34 Norte 0 -- -- 48
2019-05-25 18:00:00 17.8 17 Norte 28 Norte 0 -- -- 46
2019-05-25 17:00:00 18.2 17 Norte 29 Norte 0 -- -- 43
2019-05-25 16:00:00 17.9 17 Noroeste 40 Norte 0 -- -- 46
2019-05-25 15:00:00 17 17 Norte 31 Norte 0 -- -- 48
2019-05-25 14:00:00 15.9 15 Norte 41 Norte 0 -- -- 49
2019-05-25 13:00:00 15 26 Norte 38 Norte 0 -- -- 52
2019-05-25 12:00:00 13.4 22 Norte 40 Norte 0 -- -- 58
2019-05-25 11:00:00 12.9 24 Norte 39 Norte 0 -- -- 58
2019-05-25 10:00:00 11.9 24 Norte 37 Norte 0 -- -- 61
2019-05-25 09:00:00 11 22 Norte 36 Norte 0 -- -- 64
2019-05-25 08:00:00 10.2 15 Norte 28 Norte 0 -- -- 68
2019-05-25 07:00:00 8.7 13 Norte 23 Nordeste 0 -- -- 73
2019-05-25 06:00:00 8.8 8 Norte 24 Norte 0 -- -- 75
2019-05-25 05:00:00 9 4 Norte 19 Norte 0 -- -- 76
2019-05-25 04:00:00 8.6 12 Norte 24 Norte 0 -- -- 79
2019-05-25 03:00:00 8.9 13 Norte 28 Norte 0 -- -- 78
2019-05-25 02:00:00 8.5 13 Norte 27 Norte 0 -- -- 80
2019-05-25 01:00:00 9.1 16 Norte 33 Norte 0 -- -- 77
2019-05-25 00:00:00 9.6 20 Norte 44 Norte 0 -- -- 75
2019-05-24 23:00:00 9.7 19 Norte 37 Norte 0 -- -- 75
2019-05-24 22:00:00 9.9 19 Norte 40 Norte 0 -- -- 74
2019-05-24 21:00:00 10.9 27 Norte 41 Norte 0 -- -- 68
2019-05-24 20:00:00 12.4 26 Norte 42 Norte 0 -- -- 60
2019-05-24 19:00:00 14.3 26 Norte 49 Norte 0 -- -- 53
2019-05-24 18:00:00 14.5 32 Norte 47 Norte 0 -- -- 51
2019-05-24 17:00:00 15.7 30 Norte 51 Norte 0 -- -- 48
2019-05-24 16:00:00 16.1 29 Norte 42 Norte 0 -- -- 49
2019-05-24 15:00:00 16.4 27 Norte 41 Norte 0 -- -- 47
2019-05-24 14:00:00 15.9 22 Norte 34 Norte 0 -- -- 50
2019-05-24 13:00:00 15.6 21 Norte 34 Norte 0 -- -- 57
2019-05-24 12:00:00 15.3 19 Norte 32 Norte 0.2 -- -- 59
2019-05-24 11:00:00 14 18 Norte 29 Noroeste 0 -- -- 65
2019-05-24 10:00:00 13 8 Norte 13 Norte 0 -- -- 74
2019-05-24 09:00:00 11 7 Norte 13 Norte 0 -- -- 85
2019-05-24 08:00:00 10.3 5 Norte 12 Noroeste 0 -- -- 89
2019-05-24 07:00:00 10.5 5 Sudeste 18 Nordeste 0.6 -- -- 84
2019-05-24 06:00:00 11 8 Nordeste 15 Nordeste 0 -- -- 76
2019-05-24 05:00:00 11.2 6 Norte 14 Norte 0 -- -- 76
2019-05-24 04:00:00 11.8 11 Norte 22 Nordeste 0 -- -- 77
2019-05-24 03:00:00 12.7 4 Nordeste 11 Nordeste 0 -- -- 79
2019-05-24 02:00:00 13.1 5 Sudeste 8 Sudeste 0 -- -- 84
2019-05-24 01:00:00 13.1 3 Nordeste 14 Sur 0 -- -- 84
2019-05-24 00:00:00 13.8 10 Sudeste 24 Este 0 -- -- 81
2019-05-23 23:00:00 15.5 15 Sudeste 25 Sudeste 0 -- -- 73
2019-05-23 22:00:00 18.6 3 Norte 9 Norte 0 -- -- 53
2019-05-23 21:00:00 19.7 8 Norte 23 Norte 0 -- -- 49
2019-05-23 20:00:00 21.3 15 Norte 27 Noroeste 0 -- -- 43
2019-05-23 19:00:00 23.4 17 Noroeste 27 Noroeste 0 -- -- 37
2019-05-23 18:00:00 23.6 10 Norte 23 Oeste 0 -- -- 34
2019-05-23 17:00:00 23.2 13 Oeste 22 Oeste 0 -- -- 34
2019-05-23 16:00:00 23.2 10 Oeste 25 Sur 0 -- -- 39
2019-05-23 15:00:00 22.1 6 Oeste 14 Oeste 0 -- -- 43
2019-05-23 14:00:00 21.3 7 Noroeste 14 Noroeste 0 -- -- 43
2019-05-23 13:00:00 20 4 Oeste 10 Sudoeste 0 -- -- 45
2019-05-23 12:00:00 19.1 5 Sudoeste 12 Oeste 0 -- -- 46
2019-05-23 11:00:00 17.6 3 Sur 9 Oeste 0 -- -- 51
2019-05-23 10:00:00 16 4 Sudeste 13 Este 0 -- -- 55
2019-05-23 09:00:00 13.7 6 Sudeste 12 Este 0 -- -- 63
2019-05-23 08:00:00 12.1 3 Sudeste 8 Este 0 -- -- 69
2019-05-23 07:00:00 11.4 5 Este 8 Este 0 -- -- 68
2019-05-23 06:00:00 12.8 3 Este 14 Este 0 -- -- 61
2019-05-23 05:00:00 13.1 9 Este 21 Este 0 -- -- 60
2019-05-23 04:00:00 13.4 13 Este 24 Este 0 -- -- 60
2019-05-23 03:00:00 13.7 15 Este 24 Este 0 -- -- 58
2019-05-23 02:00:00 13.3 11 Este 20 Este 0 -- -- 58
2019-05-23 01:00:00 13.7 9 Este 19 Sudeste 0 -- -- 55
2019-05-23 00:00:00 14.9 12 Este 16 Este 0 -- -- 48
2019-05-22 23:00:00 15.7 6 Nordeste 10 Nordeste 0 -- -- 46
2019-05-22 22:00:00 17.7 8 Nordeste 11 Nordeste 0 -- -- 44
2019-05-22 21:00:00 20.1 6 Norte 14 Noroeste 0 -- -- 41
2019-05-22 20:00:00 21.2 8 Noroeste 21 Noroeste 0 -- -- 35
2019-05-22 19:00:00 22.5 12 Noroeste 28 Noroeste 0 -- -- 32
2019-05-22 18:00:00 22.8 8 Noroeste 26 Noroeste 0 -- -- 32
2019-05-22 17:00:00 23 14 Noroeste 26 Noroeste 0 -- -- 30
2019-05-22 16:00:00 22.8 15 Noroeste 29 Oeste 0 -- -- 32
2019-05-22 15:00:00 21.8 12 Oeste 27 Noroeste 0 -- -- 34
2019-05-22 14:00:00 21.3 10 Noroeste 26 Noroeste 0 -- -- 36
2019-05-22 13:00:00 20.2 11 Noroeste 19 Oeste 0 -- -- 37
2019-05-22 12:00:00 19.1 6 Sudoeste 13 Sur 0 -- -- 39
2019-05-22 11:00:00 17.9 5 Sur 12 Sudeste 0 -- -- 49
2019-05-22 10:00:00 15.7 5 Sudeste 15 Sudeste 0 -- -- 52
2019-05-22 09:00:00 13.3 9 Este 14 Este 0 -- -- 57
2019-05-22 08:00:00 8.1 3 Norte 7 Nordeste 0 -- -- 81
2019-05-22 07:00:00 5.3 3 Nordeste 13 Este 0 -- -- 84
2019-05-22 06:00:00 8 9 Este 14 Este 0 -- -- 74
2019-05-22 05:00:00 8.4 11 Este 17 Este 0 -- -- 73
2019-05-22 04:00:00 7.7 5 Nordeste 15 Este 0 -- -- 74
2019-05-22 03:00:00 8.3 3 Nordeste 17 Sudeste 0 -- -- 73
2019-05-22 02:00:00 9.3 5 Nordeste 14 Este 0 -- -- 69
2019-05-22 01:00:00 10.6 8 Sudeste 11 Sudeste 0 -- -- 65
2019-05-22 00:00:00 12.3 4 Este 12 Sudeste 0 -- -- 59
2019-05-21 23:00:00 13.1 8 Nordeste 16 Nordeste 0 -- -- 58
2019-05-21 22:00:00 14.4 13 Nordeste 25 Norte 0 -- -- 52
2019-05-21 21:00:00 17.3 14 Norte 27 Norte 0 -- -- 43
2019-05-21 20:00:00 19.3 13 Norte 25 Norte 0 -- -- 36
2019-05-21 19:00:00 19.9 14 Noroeste 26 Noroeste 0 -- -- 34
2019-05-21 18:00:00 19.8 17 Noroeste 26 Norte 0 -- -- 36
2019-05-21 17:00:00 20.4 12 Oeste 26 Oeste 0 -- -- 35
2019-05-21 16:00:00 20.2 8 Sudoeste 21 Oeste 0 -- -- 36
2019-05-21 15:00:00 18.2 4 Noroeste 18 Noroeste 0 -- -- 35
2019-05-21 14:00:00 18.4 6 Oeste 17 Norte 0 -- -- 36
2019-05-21 13:00:00 18.1 7 Nordeste 23 Sudeste 0 -- -- 40
2019-05-21 12:00:00 16.4 10 Sur 23 Sudeste 0 -- -- 45
2019-05-21 11:00:00 14.8 14 Sudeste 24 Sudeste 0 -- -- 46
2019-05-21 10:00:00 13.2 9 Sudeste 18 Este 0 -- -- 55
2019-05-21 09:00:00 11 9 Este 16 Este 0 -- -- 59
2019-05-21 08:00:00 8.3 10 Este 17 Este 0 -- -- 72
2019-05-21 07:00:00 6 5 Este 11 Este 0 -- -- 84
2019-05-21 06:00:00 5.9 8 Este 13 Nordeste 0 -- -- 87
2019-05-21 05:00:00 6.1 5 Este 10 Este 0 -- -- 84
2019-05-21 04:00:00 7.1 5 Este 13 Este 0 -- -- 80
2019-05-21 03:00:00 8.3 5 Este 19 Sudeste 0 -- -- 75
2019-05-21 02:00:00 9.3 9 Sudeste 18 Sudeste 0 -- -- 71
2019-05-21 01:00:00 10.2 10 Sudeste 15 Sudeste 0 -- -- 67
2019-05-21 00:00:00 10.7 8 Este 12 Sudeste 0 -- -- 66